AirNav   Pilot Hours Calculator
 
 773 users online  

38ND Schroeder Private Airport
Erie, North Dakota, USA

GOING TO ERIE?


FAA INFORMATION EFFECTIVE 01 DECEMBER 2022

Location

FAA Identifier: 38ND
Lat/Long: 47-05-52.9250N 097-24-04.3190W
47-05.882083N 097-24.071983W
47.0980347,-97.4011997
(estimated)
Elevation: 1140 ft. / 347 m (estimated)
Variation: 06E (1985)
From city: 2 miles SW of ERIE, ND
Time zone: UTC -6 (UTC -5 during Daylight Saving Time)
Zip code: 58029

Airport Operations

Airport use: Private use. Permission required prior to landing
Activation date: 11/1980
Control tower: no
ARTCC: MINNEAPOLIS CENTER
FSS: GRAND FORKS FLIGHT SERVICE STATION
Attendance: UNATNDD
Wind indicator: yes
Segmented circle: no

Nearby radio navigation aids

VOR radial/distance  VOR name  Freq  Var
FARr304/30.6FARGO VOR/DME116.2009E

Airport Services

Runway Information

Runway 12/30

Dimensions: 1800 x 50 ft. / 549 x 15 m
Surface: turf
RUNWAY 12  RUNWAY 30
Traffic pattern: leftleft
Obstructions: 50 ft. trees, 300 ft. from runwaynone

Airport Ownership and Management from official FAA records

Ownership: Privately-owned
Owner: ROBERT SCHROEDER
ERIE, ND 58029
Phone 701-668-2719
Manager: ROBERT SCHROEDER
ERIE, ND 58029
Phone 701-668-2719

Airport Operational Statistics

Aircraft based on the field: 3
Single engine airplanes: 3
    

Additional Remarks

FOR CD CTC MINNEAPOLIS ARTCC AT 651-463-5588.

Instrument Procedures

There are no published instrument procedures at 38ND.

Some nearby airports with instrument procedures:

5N8 - Casselton Robert Miller Regional Airport (17 nm SE)
3H4 - Hillsboro Municipal Airport (21 nm NE)
KFAR - Hector International Airport (26 nm SE)
KBAC - Barnes County Municipal Airport (27 nm W)
K74 - Robert Odegaard Field Airport (32 nm SE)
 
Loc | Ops | Rwys | IFR | FBO | Links
Com | Nav | Svcs | Stats | Notes

Bismarck Aero Center
AirBoss

 
Area around 38ND (Schroeder Private Airport)
 
Road maps at: MapQuest Bing Google
 
Aerial photo
No photo
 
Sectional chart

 
Airport distance calculator
Flying to Schroeder Private Airport? Find the distance to fly.

From to 38ND

Sunrise and sunset
Times for 03-Dec-2022
 Local
(UTC-6)
 Zulu
(UTC)
Morning civil twilight07:2413:24
Sunrise07:5813:58
Sunset16:4022:40
Evening civil twilight17:1523:15

Current date and time
Zulu (UTC)  04-Dec-2022 03:37:51
Local (UTC-6)  03-Dec-2022 21:37:51
 
METAR
KFAR 
26nm E 
040253Z 19010KT 10SM CLR M14/M18 A3014 RMK AO2 SLP234 T11441183 56017
KBAC 
27nm W 
040315Z AUTO 32004KT 10SM CLR M17/M18 A3012 RMK AO2
KJKJ 
34nm SE 
040315Z AUTO 20006KT 10SM CLR M13/M17 A3015 RMK AO2 TSNO
KS32 
35nm NW 
040315Z AUTO 24010KT 10SM CLR M18/M18 A3010 RMK AO2 TSNO
TAF
KFAR 
26nm E 
031722Z 0318/0418 20011KT P6SM BKN080 FM032200 20008KT P6SM SCT100 FM040800 24009KT P6SM FEW250 FM041200 23010KT P6SM FEW250 WS020/29035KT
NOTAMs
Click for the latest NOTAMs
NOTAMs are issued by the DoD/FAA and will open in a separate window not controlled by AirNav.

 

 
 

Would you like to see your business listed on this page?

 If your business provides an interesting product or service to pilots, flight crews, aircraft, or users of the Schroeder Private Airport, you should consider listing it here.  To start the listing process, click on the button below
 
Add a business
 

Other Pages about Schroeder Private Airport

Update a link
 
Copyright © AirNav, LLC. All rights reserved. Privacy Policy  Contact